createdAt,value
2019-01-09T00:00:45.724Z,3.82
2019-01-09T00:03:16.728Z,3.79
2019-01-09T00:05:47.358Z,3.77
2019-01-09T00:08:20.093Z,3.75
2019-01-09T00:10:52.464Z,3.76
2019-01-09T00:13:22.877Z,3.74
2019-01-09T00:15:57.096Z,3.73
2019-01-09T00:18:29.519Z,3.72
2019-01-09T00:20:59.870Z,3.69
2019-01-09T00:23:30.395Z,3.64
2019-01-09T00:26:00.774Z,3.60
2019-01-09T00:28:34.037Z,3.55
2019-01-09T00:31:04.342Z,3.58
2019-01-09T00:33:39.151Z,3.61
2019-01-09T00:36:09.834Z,3.66
2019-01-09T00:38:41.751Z,3.66
2019-01-09T00:41:12.016Z,3.65
2019-01-09T00:43:44.301Z,3.58
2019-01-09T00:46:14.595Z,3.48
2019-01-09T00:48:45.908Z,3.46
2019-01-09T00:51:16.893Z,3.52
2019-01-09T00:53:47.302Z,3.38
2019-01-09T00:56:23.089Z,3.40
2019-01-09T00:58:55.847Z,3.56
2019-01-09T01:01:27.113Z,3.60
2019-01-09T01:04:23.838Z,3.68
2019-01-09T01:07:47.843Z,3.71
2019-01-09T01:11:14.546Z,3.66
2019-01-09T01:14:15.610Z,3.59
2019-01-09T01:17:27.242Z,3.59
2019-01-09T01:20:36.679Z,3.52
2019-01-09T01:23:43.276Z,3.30
2019-01-09T01:26:37.027Z,3.21
2019-01-09T01:29:43.832Z,3.13
2019-01-09T01:32:50.176Z,3.21
2019-01-09T01:36:10.791Z,3.38
2019-01-09T01:39:07.440Z,3.44
2019-01-09T01:42:24.434Z,3.40
2019-01-09T01:45:24.111Z,3.32
2019-01-09T01:48:31.821Z,3.36
2019-01-09T01:51:30.236Z,3.43
2019-01-09T01:54:47.328Z,3.43
2019-01-09T01:57:47.938Z,3.41
2019-01-09T02:00:55.187Z,3.44
2019-01-09T02:04:12.953Z,3.49
2019-01-09T02:07:09.886Z,3.51
2019-01-09T02:10:07.990Z,3.50
2019-01-09T02:13:02.194Z,3.38
2019-01-09T02:16:13.179Z,3.48
2019-01-09T02:18:52.937Z,3.53
2019-01-09T02:22:22.724Z,3.60
2019-01-09T02:25:25.948Z,3.69
2019-01-09T02:28:24.994Z,3.79
2019-01-09T02:31:30.866Z,3.84
2019-01-09T02:34:01.166Z,3.77
2019-01-09T02:36:35.588Z,3.68
2019-01-09T02:39:06.237Z,3.64
2019-01-09T02:41:36.594Z,3.57
2019-01-09T02:44:10.032Z,3.55
2019-01-09T02:46:41.474Z,3.54
2019-01-09T02:49:16.891Z,3.56
2019-01-09T02:51:47.407Z,3.55
2019-01-09T02:54:17.729Z,3.55
2019-01-09T02:56:48.363Z,3.57
2019-01-09T02:59:18.664Z,3.54
2019-01-09T03:01:54.040Z,3.36
2019-01-09T03:04:24.416Z,3.14
2019-01-09T03:07:00.484Z,2.99
2019-01-09T03:09:30.587Z,2.93
2019-01-09T03:12:04.436Z,2.87
2019-01-09T03:14:36.438Z,2.75
2019-01-09T03:17:07.974Z,2.82
2019-01-09T03:19:38.508Z,2.82
2019-01-09T03:22:09.265Z,2.82
2019-01-09T03:24:40.937Z,2.93
2019-01-09T03:27:11.918Z,2.98
2019-01-09T03:29:46.996Z,3.06
2019-01-09T03:32:18.164Z,3.15
2019-01-09T03:34:48.628Z,3.13
2019-01-09T03:37:20.162Z,3.03
2019-01-09T03:39:50.831Z,2.95
2019-01-09T03:42:21.139Z,2.82
2019-01-09T03:44:51.424Z,2.73
2019-01-09T03:47:28.745Z,2.71
2019-01-09T03:49:59.154Z,2.77
2019-01-09T03:52:29.924Z,2.62
2019-01-09T03:55:00.282Z,2.66
2019-01-09T03:57:30.580Z,2.79
2019-01-09T04:00:04.425Z,2.73
2019-01-09T04:02:34.795Z,2.68
2019-01-09T04:05:08.358Z,2.78
2019-01-09T04:07:38.870Z,2.85
2019-01-09T04:10:09.303Z,2.69
2019-01-09T04:12:39.626Z,2.57
2019-01-09T04:15:10.745Z,2.48
2019-01-09T04:17:43.065Z,2.49
2019-01-09T04:20:13.669Z,2.52
2019-01-09T04:22:44.176Z,2.50
2019-01-09T04:25:18.279Z,2.40
2019-01-09T04:27:48.586Z,2.33
2019-01-09T04:30:20.515Z,2.31
2019-01-09T04:32:50.845Z,2.21
2019-01-09T04:35:21.283Z,2.28
2019-01-09T04:37:51.628Z,2.29
2019-01-09T04:40:23.276Z,2.29
2019-01-09T04:42:53.562Z,2.26
2019-01-09T04:45:24.702Z,2.29
2019-01-09T04:47:55.327Z,2.31
2019-01-09T04:50:27.313Z,2.28
2019-01-09T04:52:59.773Z,2.41
2019-01-09T04:55:30.530Z,2.30
2019-01-09T04:58:00.898Z,2.33
2019-01-09T05:00:33.014Z,2.42
2019-01-09T05:03:03.495Z,2.32
2019-01-09T05:05:34.524Z,2.22
2019-01-09T05:08:05.113Z,2.10
2019-01-09T05:10:38.891Z,2.08
2019-01-09T05:13:09.565Z,2.08
2019-01-09T05:15:45.151Z,2.10
2019-01-09T05:18:15.703Z,2.16
2019-01-09T05:20:48.035Z,2.32
2019-01-09T05:23:18.637Z,2.44
2019-01-09T05:25:51.020Z,2.27
2019-01-09T05:28:21.394Z,2.27
2019-01-09T05:30:53.188Z,2.47
2019-01-09T05:33:23.743Z,2.50
2019-01-09T05:35:54.067Z,2.42
2019-01-09T05:38:25.917Z,2.31
2019-01-09T05:40:56.365Z,2.32
2019-01-09T05:43:26.843Z,2.33
2019-01-09T05:45:57.133Z,2.38
2019-01-09T05:48:27.885Z,2.33
2019-01-09T05:50:58.519Z,2.27
2019-01-09T05:53:30.300Z,2.17
2019-01-09T05:56:01.966Z,2.17
2019-01-09T05:58:32.312Z,2.01
2019-01-09T06:01:05.881Z,2.07
2019-01-09T06:03:37.257Z,2.03
2019-01-09T06:06:07.661Z,2.08
2019-01-09T06:08:38.233Z,2.18
2019-01-09T06:11:08.734Z,2.07
2019-01-09T06:13:39.886Z,2.07
2019-01-09T06:16:11.697Z,2.04
2019-01-09T06:18:45.696Z,2.08
2019-01-09T06:21:16.025Z,2.21
2019-01-09T06:23:49.099Z,2.25
2019-01-09T06:26:19.394Z,2.22
2019-01-09T06:28:50.868Z,2.17
2019-01-09T06:31:21.115Z,2.35
2019-01-09T06:33:53.088Z,2.54
2019-01-09T06:36:25.353Z,2.72
2019-01-09T06:38:57.250Z,2.82
2019-01-09T06:41:27.735Z,2.57
2019-01-09T06:44:00.064Z,2.47
2019-01-09T06:46:32.737Z,2.43
2019-01-09T06:49:04.754Z,2.28
2019-01-09T06:51:35.566Z,2.24
2019-01-09T06:54:07.378Z,2.17
2019-01-09T06:56:37.870Z,2.06
2019-01-09T06:59:08.278Z,2.04
2019-01-09T07:01:38.633Z,1.99
2019-01-09T07:04:09.034Z,1.98
2019-01-09T07:06:39.345Z,1.93
2019-01-09T07:09:09.818Z,1.86
2019-01-09T07:11:44.311Z,1.90
2019-01-09T07:14:14.798Z,1.86
2019-01-09T07:16:47.424Z,1.79
2019-01-09T07:19:17.722Z,1.92
2019-01-09T07:21:50.885Z,2.02
2019-01-09T07:24:21.183Z,2.02
2019-01-09T07:26:56.359Z,2.16
2019-01-09T07:29:26.716Z,2.25
2019-01-09T07:31:57.304Z,2.22
2019-01-09T07:34:27.635Z,2.24
2019-01-09T07:36:58.023Z,2.33
2019-01-09T07:39:29.865Z,2.32
2019-01-09T07:42:00.489Z,2.31
2019-01-09T07:44:37.439Z,2.19
2019-01-09T07:47:07.857Z,2.14
2019-01-09T07:49:38.215Z,2.16
2019-01-09T07:52:08.764Z,2.13
2019-01-09T07:54:39.088Z,2.13
2019-01-09T07:57:12.467Z,2.22
2019-01-09T07:59:45.741Z,2.20
2019-01-09T08:02:17.831Z,2.22
2019-01-09T08:04:48.141Z,2.28
2019-01-09T08:07:19.858Z,2.39
2019-01-09T08:09:50.128Z,2.47
2019-01-09T08:12:21.858Z,2.65
2019-01-09T08:14:52.556Z,2.65
2019-01-09T08:17:24.944Z,2.75
2019-01-09T08:19:55.581Z,2.85
2019-01-09T08:22:27.201Z,2.94
2019-01-09T08:24:57.481Z,2.96
2019-01-09T08:27:28.987Z,2.89
2019-01-09T08:29:59.658Z,2.88
2019-01-09T08:32:29.963Z,2.74
2019-01-09T08:35:00.324Z,2.77
2019-01-09T08:37:34.498Z,2.79
2019-01-09T08:40:06.176Z,2.84
2019-01-09T08:42:46.874Z,2.88
2019-01-09T08:45:17.227Z,3.00
2019-01-09T08:47:48.898Z,3.11
2019-01-09T08:50:19.242Z,3.16
2019-01-09T08:52:54.759Z,3.30
2019-01-09T08:55:26.743Z,3.35
2019-01-09T08:58:00.425Z,3.39
2019-01-09T09:00:30.984Z,3.46
2019-01-09T09:03:01.936Z,3.51
2019-01-09T09:05:32.254Z,3.85
2019-01-09T09:08:11.995Z,4.45
2019-01-09T09:10:36.139Z,4.36
2019-01-09T09:13:07.928Z,4.71
2019-01-09T09:15:38.560Z,6.02
2019-01-09T09:18:10.198Z,6.59
2019-01-09T09:20:40.891Z,6.93
2019-01-09T09:23:13.375Z,7.30
2019-01-09T09:25:47.719Z,7.30
2019-01-09T09:28:19.266Z,7.10
2019-01-09T09:30:49.814Z,6.92
2019-01-09T09:33:20.313Z,6.81
2019-01-09T09:35:50.851Z,6.45
2019-01-09T09:38:24.894Z,6.23
2019-01-09T09:40:55.249Z,6.15
2019-01-09T09:43:27.804Z,5.72
2019-01-09T09:45:58.392Z,5.59
2019-01-09T09:48:29.999Z,5.54
2019-01-09T09:51:02.244Z,6.06
2019-01-09T09:53:32.632Z,6.32
2019-01-09T09:56:03.220Z,6.81
2019-01-09T09:58:35.723Z,6.58
2019-01-09T10:01:06.307Z,5.95
2019-01-09T10:03:38.475Z,5.39
2019-01-09T10:06:09.127Z,5.05
2019-01-09T10:08:39.440Z,4.83
2019-01-09T10:11:11.968Z,5.28
2019-01-09T10:13:42.381Z,6.77
2019-01-09T10:16:12.965Z,6.79
2019-01-09T10:18:43.378Z,7.07
2019-01-09T10:21:13.948Z,7.13
2019-01-09T10:23:44.283Z,6.26
2019-01-09T10:26:14.888Z,5.84
2019-01-09T10:28:48.002Z,5.56
2019-01-09T10:31:18.277Z,5.46
2019-01-09T10:33:48.795Z,5.36
2019-01-09T10:36:20.738Z,5.37
2019-01-09T10:38:52.205Z,5.47
2019-01-09T10:41:23.250Z,5.64
2019-01-09T10:43:53.593Z,5.63
2019-01-09T10:46:25.842Z,5.67
2019-01-09T10:48:56.162Z,5.73
2019-01-09T10:51:26.785Z,6.44
2019-01-09T10:53:57.069Z,6.44
2019-01-09T10:56:31.668Z,6.29
2019-01-09T10:59:03.929Z,6.37
2019-01-09T11:01:37.379Z,6.06
2019-01-09T11:04:09.526Z,5.71
2019-01-09T11:06:39.882Z,5.46
2019-01-09T11:09:10.380Z,5.32
2019-01-09T11:11:40.730Z,5.33
2019-01-09T11:14:11.387Z,5.30
2019-01-09T11:16:41.880Z,5.33
2019-01-09T11:19:13.668Z,5.33
2019-01-09T11:21:44.235Z,5.36
2019-01-09T11:24:14.841Z,5.54
2019-01-09T11:26:45.282Z,5.48
2019-01-09T11:29:15.853Z,5.42
2019-01-09T11:31:46.291Z,5.42
2019-01-09T11:34:17.074Z,5.44
2019-01-09T11:36:47.663Z,5.47
2019-01-09T11:39:18.474Z,5.52
2019-01-09T11:41:49.211Z,5.57
2019-01-09T11:44:21.249Z,5.71
2019-01-09T11:46:53.417Z,5.81
2019-01-09T11:49:23.940Z,6.00
2019-01-09T11:51:54.263Z,6.15
2019-01-09T11:54:24.838Z,6.33
2019-01-09T11:56:55.193Z,6.59
2019-01-09T11:59:25.660Z,6.76
2019-01-09T12:01:56.485Z,6.97
2019-01-09T12:04:27.069Z,6.87
2019-01-09T12:06:57.469Z,6.89
2019-01-09T12:09:28.074Z,6.95
2019-01-09T12:11:58.670Z,6.99
2019-01-09T12:14:30.322Z,6.98
2019-01-09T12:17:02.157Z,6.86
2019-01-09T12:19:32.451Z,6.68
2019-01-09T12:22:03.098Z,6.55
2019-01-09T12:24:34.523Z,6.55
2019-01-09T12:27:05.327Z,6.57
2019-01-09T12:29:48.302Z,6.30
2019-01-09T12:32:19.050Z,6.06
2019-01-09T12:34:49.451Z,6.04
2019-01-09T12:37:20.004Z,6.09
2019-01-09T12:39:50.304Z,6.00
2019-01-09T12:42:21.075Z,6.01
2019-01-09T12:44:51.650Z,6.21
2019-01-09T12:47:22.063Z,6.37
2019-01-09T12:49:52.386Z,6.28
2019-01-09T12:52:23.100Z,6.20
2019-01-09T12:54:53.596Z,6.08
2019-01-09T12:57:24.643Z,6.21
2019-01-09T13:00:11.750Z,6.15
2019-01-09T13:02:42.386Z,6.04
2019-01-09T13:05:12.985Z,5.93
2019-01-09T13:07:44.571Z,5.83
2019-01-09T13:10:14.858Z,5.89
2019-01-09T13:12:45.600Z,5.85
2019-01-09T13:15:15.941Z,5.90
2019-01-09T13:17:46.779Z,5.84
2019-01-09T13:20:17.295Z,5.75
2019-01-09T13:22:49.089Z,5.76
2019-01-09T13:25:19.416Z,5.71
2019-01-09T13:27:50.625Z,5.65
2019-01-09T13:30:23.080Z,5.66
2019-01-09T13:32:54.863Z,5.70
2019-01-09T13:35:25.613Z,5.83
2019-01-09T13:37:57.288Z,5.99
2019-01-09T13:40:27.644Z,6.19
2019-01-09T13:42:59.496Z,6.27
2019-01-09T13:45:29.803Z,6.29
2019-01-09T13:48:00.332Z,6.31
2019-01-09T13:50:31.599Z,6.54
2019-01-09T13:53:03.892Z,6.40
2019-01-09T13:55:34.519Z,6.24
2019-01-09T13:58:04.989Z,5.96
2019-01-09T14:00:36.992Z,5.86
2019-01-09T14:03:07.374Z,5.94
2019-01-09T14:05:37.695Z,6.06
2019-01-09T14:08:08.126Z,5.97
2019-01-09T14:10:40.350Z,5.94
2019-01-09T14:13:10.797Z,5.89
2019-01-09T14:15:41.414Z,5.89
2019-01-09T14:18:11.777Z,5.99
2019-01-09T14:20:44.055Z,5.98
2019-01-09T14:23:15.657Z,5.89
2019-01-09T14:25:46.498Z,5.80
2019-01-09T14:28:18.928Z,5.79
2019-01-09T14:30:49.560Z,5.95
2019-01-09T14:33:19.936Z,6.06
2019-01-09T14:35:53.432Z,6.18
2019-01-09T14:38:23.757Z,6.23
2019-01-09T14:40:55.294Z,6.23
2019-01-09T14:43:25.689Z,6.23
2019-01-09T14:45:57.789Z,6.13
2019-01-09T14:48:29.451Z,6.01
2019-01-09T14:50:59.909Z,5.89
2019-01-09T14:53:30.833Z,5.75
2019-01-09T14:56:02.825Z,5.56
2019-01-09T14:58:33.715Z,5.45
2019-01-09T15:01:04.317Z,5.34
2019-01-09T15:03:35.227Z,5.23
2019-01-09T15:06:06.200Z,5.10
2019-01-09T15:08:37.086Z,5.06
2019-01-09T15:11:07.666Z,4.93
2019-01-09T15:13:38.437Z,4.90
2019-01-09T15:16:08.800Z,4.75
2019-01-09T15:18:42.753Z,4.64
2019-01-09T15:21:13.130Z,4.58
2019-01-09T15:23:45.589Z,4.44
2019-01-09T15:26:15.954Z,4.35
2019-01-09T15:28:48.636Z,4.32
2019-01-09T15:31:18.920Z,4.30
2019-01-09T15:33:52.635Z,4.19
2019-01-09T15:36:23.114Z,4.27
2019-01-09T15:38:54.169Z,4.22
2019-01-09T15:41:24.690Z,4.18
2019-01-09T15:43:55.733Z,4.02
2019-01-09T15:46:26.270Z,4.02
2019-01-09T15:48:56.764Z,4.12
2019-01-09T15:51:27.152Z,4.01
2019-01-09T15:53:57.616Z,3.96
2019-01-09T15:56:28.283Z,3.89
2019-01-09T15:58:59.893Z,3.84
2019-01-09T16:01:30.375Z,3.74
2019-01-09T16:04:07.928Z,3.69
2019-01-09T16:06:38.640Z,3.64
2019-01-09T16:09:10.577Z,3.78
2019-01-09T16:11:41.270Z,3.76
2019-01-09T16:14:11.943Z,3.76
2019-01-09T16:16:42.316Z,3.74
2019-01-09T16:19:14.180Z,3.67
2019-01-09T16:21:47.070Z,3.58
2019-01-09T16:24:18.984Z,3.65
2019-01-09T16:26:49.647Z,3.53
2019-01-09T16:29:20.010Z,3.53
2019-01-09T16:31:50.357Z,3.46
2019-01-09T16:34:20.688Z,3.48
2019-01-09T16:36:51.594Z,3.39
2019-01-09T16:39:30.540Z,3.30
2019-01-09T16:41:56.962Z,3.21
2019-01-09T16:44:27.305Z,3.16
2019-01-09T16:46:59.670Z,3.19
2019-01-09T16:49:30.157Z,3.18
2019-01-09T16:52:01.311Z,3.22
2019-01-09T16:54:31.958Z,3.21
2019-01-09T16:57:05.449Z,3.28
2019-01-09T16:59:35.973Z,3.28
2019-01-09T17:02:09.516Z,3.33
2019-01-09T17:04:41.704Z,3.27
2019-01-09T17:07:12.255Z,3.38
2019-01-09T17:09:49.295Z,3.20
2019-01-09T17:12:21.512Z,3.31
2019-01-09T17:14:51.949Z,3.27
2019-01-09T17:17:22.379Z,3.26
2019-01-09T17:19:54.079Z,3.17
2019-01-09T17:22:25.560Z,3.19
2019-01-09T17:24:56.009Z,3.12
2019-01-09T17:27:27.728Z,3.12
2019-01-09T17:29:58.182Z,3.14
2019-01-09T17:32:28.538Z,3.06
2019-01-09T17:34:59.535Z,2.99
2019-01-09T17:37:29.893Z,3.09
2019-01-09T17:40:00.490Z,3.11
2019-01-09T17:42:31.011Z,3.04
2019-01-09T17:45:05.685Z,3.12
2019-01-09T17:47:35.791Z,3.04
2019-01-09T17:50:13.156Z,3.01
2019-01-09T17:52:44.543Z,2.94
2019-01-09T17:55:15.315Z,2.83
2019-01-09T17:58:01.227Z,2.82
2019-01-09T18:00:25.101Z,2.83
2019-01-09T18:02:56.770Z,2.83
2019-01-09T18:05:27.159Z,2.85
2019-01-09T18:07:58.167Z,2.83
2019-01-09T18:10:28.980Z,2.81
2019-01-09T18:12:59.975Z,2.92
2019-01-09T18:15:31.481Z,2.99
2019-01-09T18:18:01.881Z,3.01
2019-01-09T18:20:32.722Z,3.08
2019-01-09T18:23:03.064Z,3.06
2019-01-09T18:25:34.057Z,3.08
2019-01-09T18:28:04.495Z,3.10
2019-01-09T18:31:08.611Z,3.17
2019-01-09T18:33:46.837Z,3.10
2019-01-09T18:36:44.746Z,3.21
2019-01-09T18:39:56.213Z,3.26
2019-01-09T18:43:05.737Z,3.20
2019-01-09T18:46:08.046Z,3.12
2019-01-09T18:49:19.464Z,3.12
2019-01-09T18:52:52.369Z,3.10
2019-01-09T18:55:24.646Z,3.12
2019-01-09T18:57:57.636Z,3.08
2019-01-09T19:00:28.155Z,3.05
2019-01-09T19:02:58.937Z,3.13
2019-01-09T19:05:33.754Z,3.13
2019-01-09T19:08:04.802Z,3.13
2019-01-09T19:10:36.629Z,3.02
2019-01-09T19:13:06.876Z,2.94
2019-01-09T19:15:37.590Z,3.02
2019-01-09T19:18:08.321Z,3.03
2019-01-09T19:20:40.124Z,3.01
2019-01-09T19:23:11.346Z,2.98
2019-01-09T19:25:41.979Z,2.98
2019-01-09T19:28:14.190Z,2.97
2019-01-09T19:30:45.113Z,2.98
2019-01-09T19:33:16.766Z,2.86
2019-01-09T19:35:48.705Z,2.85
2019-01-09T19:38:19.647Z,2.81
2019-01-09T19:40:51.674Z,2.83
2019-01-09T19:43:22.431Z,2.75
2019-01-09T19:45:52.855Z,2.79
2019-01-09T19:48:24.113Z,2.80
2019-01-09T19:50:54.479Z,2.80
2019-01-09T19:53:24.893Z,2.79
2019-01-09T19:55:55.720Z,2.80
2019-01-09T19:58:29.307Z,2.80
2019-01-09T20:01:01.592Z,2.80
2019-01-09T20:03:35.765Z,2.78
2019-01-09T20:06:07.648Z,2.79
2019-01-09T20:08:40.055Z,2.75
2019-01-09T20:11:12.237Z,2.74
2019-01-09T20:13:44.011Z,2.69
2019-01-09T20:16:14.726Z,2.69
2019-01-09T20:18:45.226Z,2.58
2019-01-09T20:21:16.206Z,2.46
2019-01-09T20:23:47.156Z,2.46
2019-01-09T20:26:17.792Z,2.44
2019-01-09T20:28:48.206Z,2.42
2019-01-09T20:31:20.388Z,2.44
2019-01-09T20:33:51.165Z,2.38
2019-01-09T20:36:23.780Z,2.43
2019-01-09T20:38:54.119Z,2.39
2019-01-09T20:41:34.923Z,2.29
2019-01-09T20:43:58.061Z,2.22
2019-01-09T20:46:28.521Z,2.15
2019-01-09T20:48:59.129Z,2.01
2019-01-09T20:51:29.580Z,2.00
2019-01-09T20:54:00.136Z,2.02
2019-01-09T20:56:30.675Z,2.01
2019-01-09T20:59:01.351Z,2.00
2019-01-09T21:01:32.664Z,1.92
2019-01-09T21:04:02.988Z,1.91
2019-01-09T21:06:39.566Z,1.96
2019-01-09T21:09:11.091Z,1.89
2019-01-09T21:11:44.437Z,1.88
2019-01-09T21:14:15.385Z,1.85
2019-01-09T21:16:45.889Z,1.76
2019-01-09T21:19:16.383Z,1.66
2019-01-09T21:21:47.066Z,1.56
2019-01-09T21:24:21.238Z,1.56
2019-01-09T21:26:57.120Z,1.56
2019-01-09T21:29:28.675Z,1.48
2019-01-09T21:31:59.256Z,1.38
2019-01-09T21:34:31.658Z,1.32
2019-01-09T21:37:01.998Z,1.23
2019-01-09T21:39:34.847Z,1.08
2019-01-09T21:42:05.564Z,1.05
2019-01-09T21:44:36.098Z,1.06
2019-01-09T21:47:06.657Z,1.08
2019-01-09T21:49:37.096Z,0.97
2019-01-09T21:52:07.550Z,0.86
2019-01-09T21:54:37.856Z,0.78
2019-01-09T21:57:10.819Z,0.62
2019-01-09T21:59:41.484Z,0.54
2019-01-09T22:02:13.012Z,0.49
2019-01-09T22:04:49.399Z,0.47
2019-01-09T22:07:19.829Z,0.39
2019-01-09T22:09:51.591Z,0.43
2019-01-09T22:14:58.254Z,0.29
2019-01-09T22:17:28.576Z,0.23
2019-01-09T22:19:58.937Z,0.29
2019-01-09T22:22:29.449Z,0.24
2019-01-09T22:25:00.201Z,0.18
2019-01-09T22:27:30.730Z,0.20
2019-01-09T22:30:01.435Z,-0.04
2019-01-09T22:32:31.761Z,-0.04
2019-01-09T22:35:04.628Z,-0.22
2019-01-09T22:37:36.709Z,-0.22
2019-01-09T22:40:12.454Z,-0.29
2019-01-09T22:42:43.173Z,-0.33
2019-01-09T22:47:51.010Z,-0.24
2019-01-09T22:50:24.960Z,-0.24
2019-01-09T22:52:55.252Z,-0.26
2019-01-09T22:55:25.873Z,-0.40
2019-01-09T22:57:56.401Z,-0.40
2019-01-09T23:00:38.754Z,-0.38
2019-01-09T23:03:13.325Z,-0.34
2019-01-09T23:05:43.714Z,-0.33
2019-01-09T23:08:15.541Z,-0.43
2019-01-09T23:10:54.453Z,-0.51
2019-01-09T23:13:20.454Z,-0.61
2019-01-09T23:15:53.124Z,-0.73
2019-01-09T23:18:26.704Z,-0.80
2019-01-09T23:20:57.387Z,-0.80
2019-01-09T23:23:28.144Z,-0.84
2019-01-09T23:25:58.513Z,-0.84
2019-01-09T23:28:30.798Z,-0.84
2019-01-09T23:31:01.455Z,-0.87
2019-01-09T23:33:33.278Z,-0.93
2019-01-09T23:36:04.249Z,-0.94
2019-01-09T23:38:35.021Z,-0.96
2019-01-09T23:41:06.535Z,-0.93
2019-01-09T23:43:36.884Z,-0.93
2019-01-09T23:46:08.721Z,-0.86
2019-01-09T23:48:39.024Z,-0.94
2019-01-09T23:51:09.470Z,-1.04
2019-01-09T23:53:39.959Z,-1.04
2019-01-09T23:56:11.504Z,-0.92
2019-01-09T23:58:41.876Z,-0.96
